sensor_id;sensor_type;location;lat;lon;timestamp;temperature;humidity
16154;DHT22;8182;55.648;13.208;2023-12-22T00:00:03;3.20;1.00
16154;DHT22;8182;55.648;13.208;2023-12-22T00:02:32;3.30;99.90
16154;DHT22;8182;55.648;13.208;2023-12-22T00:04:59;3.40;1.00
16154;DHT22;8182;55.648;13.208;2023-12-22T00:07:26;3.50;13.90
16154;DHT22;8182;55.648;13.208;2023-12-22T00:09:53;3.50;1.00
16154;DHT22;8182;55.648;13.208;2023-12-22T00:12:21;3.50;1.00
16154;DHT22;8182;55.648;13.208;2023-12-22T00:14:48;3.60;1.00
16154;DHT22;8182;55.648;13.208;2023-12-22T00:17:15;3.60;1.00
16154;DHT22;8182;55.648;13.208;2023-12-22T00:19:44;3.70;1.00
16154;DHT22;8182;55.648;13.208;2023-12-22T00:22:11;3.60;1.00
16154;DHT22;8182;55.648;13.208;2023-12-22T00:24:39;3.50;1.00
16154;DHT22;8182;55.648;13.208;2023-12-22T00:27:06;3.60;1.00
16154;DHT22;8182;55.648;13.208;2023-12-22T00:29:33;3.50;1.00
16154;DHT22;8182;55.648;13.208;2023-12-22T00:32:03;3.60;1.00
16154;DHT22;8182;55.648;13.208;2023-12-22T00:34:30;3.60;1.00
16154;DHT22;8182;55.648;13.208;2023-12-22T00:36:59;3.50;1.00
16154;DHT22;8182;55.648;13.208;2023-12-22T00:39:26;3.50;1.00
16154;DHT22;8182;55.648;13.208;2023-12-22T00:41:53;3.50;1.00
16154;DHT22;8182;55.648;13.208;2023-12-22T00:44:20;3.40;1.00
16154;DHT22;8182;55.648;13.208;2023-12-22T00:46:46;3.40;1.00
16154;DHT22;8182;55.648;13.208;2023-12-22T00:49:13;3.70;1.00
16154;DHT22;8182;55.648;13.208;2023-12-22T00:51:40;3.70;1.00
16154;DHT22;8182;55.648;13.208;2023-12-22T00:54:09;3.70;1.00
16154;DHT22;8182;55.648;13.208;2023-12-22T00:56:36;3.70;1.00
16154;DHT22;8182;55.648;13.208;2023-12-22T00:59:03;3.60;1.00
16154;DHT22;8182;55.648;13.208;2023-12-22T01:01:30;3.60;1.00
16154;DHT22;8182;55.648;13.208;2023-12-22T01:03:57;3.50;1.00
16154;DHT22;8182;55.648;13.208;2023-12-22T01:06:24;3.60;1.00
16154;DHT22;8182;55.648;13.208;2023-12-22T01:08:51;3.80;1.00
16154;DHT22;8182;55.648;13.208;2023-12-22T01:11:20;3.80;1.00
16154;DHT22;8182;55.648;13.208;2023-12-22T01:13:47;3.70;1.00
16154;DHT22;8182;55.648;13.208;2023-12-22T01:16:15;3.70;1.00
16154;DHT22;8182;55.648;13.208;2023-12-22T01:18:43;3.80;1.00
16154;DHT22;8182;55.648;13.208;2023-12-22T01:21:10;3.70;1.00
16154;DHT22;8182;55.648;13.208;2023-12-22T01:23:37;3.80;1.00
16154;DHT22;8182;55.648;13.208;2023-12-22T01:26:04;3.90;1.00
16154;DHT22;8182;55.648;13.208;2023-12-22T01:28:33;3.80;1.00
16154;DHT22;8182;55.648;13.208;2023-12-22T01:31:00;3.70;1.00
16154;DHT22;8182;55.648;13.208;2023-12-22T01:33:27;3.60;1.00
16154;DHT22;8182;55.648;13.208;2023-12-22T01:35:55;3.50;1.00
16154;DHT22;8182;55.648;13.208;2023-12-22T01:38:22;3.50;1.00
16154;DHT22;8182;55.648;13.208;2023-12-22T01:40:49;3.60;1.00
16154;DHT22;8182;55.648;13.208;2023-12-22T01:43:16;3.60;1.00
16154;DHT22;8182;55.648;13.208;2023-12-22T01:45:49;3.50;1.00
16154;DHT22;8182;55.648;13.208;2023-12-22T01:48:16;3.40;1.00
16154;DHT22;8182;55.648;13.208;2023-12-22T01:50:43;3.40;1.00
16154;DHT22;8182;55.648;13.208;2023-12-22T01:53:11;3.40;1.00
16154;DHT22;8182;55.648;13.208;2023-12-22T01:55:38;3.50;1.00
16154;DHT22;8182;55.648;13.208;2023-12-22T01:58:05;3.60;1.00
16154;DHT22;8182;55.648;13.208;2023-12-22T02:00:32;3.50;1.00
16154;DHT22;8182;55.648;13.208;2023-12-22T02:03:02;3.50;1.00
16154;DHT22;8182;55.648;13.208;2023-12-22T02:05:29;3.50;1.00
16154;DHT22;8182;55.648;13.208;2023-12-22T02:07:56;3.40;1.00
16154;DHT22;8182;55.648;13.208;2023-12-22T02:10:24;3.50;1.00
16154;DHT22;8182;55.648;13.208;2023-12-22T02:12:51;3.40;1.00
16154;DHT22;8182;55.648;13.208;2023-12-22T02:15:18;3.50;1.00
16154;DHT22;8182;55.648;13.208;2023-12-22T02:17:49;3.40;1.00
16154;DHT22;8182;55.648;13.208;2023-12-22T02:20:21;3.40;1.00
16154;DHT22;8182;55.648;13.208;2023-12-22T02:22:52;3.40;1.00
16154;DHT22;8182;55.648;13.208;2023-12-22T02:25:20;3.40;1.00
16154;DHT22;8182;55.648;13.208;2023-12-22T02:27:49;3.20;1.00
16154;DHT22;8182;55.648;13.208;2023-12-22T02:30:22;3.20;1.00
16154;DHT22;8182;55.648;13.208;2023-12-22T02:32:54;3.30;1.00
16154;DHT22;8182;55.648;13.208;2023-12-22T02:35:25;3.30;1.00
16154;DHT22;8182;55.648;13.208;2023-12-22T02:37:56;3.30;1.00
16154;DHT22;8182;55.648;13.208;2023-12-22T02:40:25;3.20;1.00
16154;DHT22;8182;55.648;13.208;2023-12-22T02:42:53;3.20;1.00
16154;DHT22;8182;55.648;13.208;2023-12-22T02:45:20;3.10;1.00
16154;DHT22;8182;55.648;13.208;2023-12-22T02:47:48;3.10;1.00
16154;DHT22;8182;55.648;13.208;2023-12-22T02:50:16;3.10;1.00
16154;DHT22;8182;55.648;13.208;2023-12-22T02:52:44;3.30;1.00
16154;DHT22;8182;55.648;13.208;2023-12-22T02:55:14;3.20;1.00
16154;DHT22;8182;55.648;13.208;2023-12-22T02:57:41;3.20;1.00
16154;DHT22;8182;55.648;13.208;2023-12-22T03:00:09;3.30;1.00
16154;DHT22;8182;55.648;13.208;2023-12-22T03:02:36;3.30;1.00
16154;DHT22;8182;55.648;13.208;2023-12-22T03:05:03;3.20;1.00
16154;DHT22;8182;55.648;13.208;2023-12-22T03:07:31;3.30;1.00
16154;DHT22;8182;55.648;13.208;2023-12-22T03:09:58;3.20;1.00
16154;DHT22;8182;55.648;13.208;2023-12-22T03:12:26;3.20;1.00
16154;DHT22;8182;55.648;13.208;2023-12-22T03:14:53;3.20;1.00
16154;DHT22;8182;55.648;13.208;2023-12-22T03:17:20;3.10;1.00
16154;DHT22;8182;55.648;13.208;2023-12-22T03:19:48;3.10;1.00
16154;DHT22;8182;55.648;13.208;2023-12-22T03:22:15;3.10;1.00
16154;DHT22;8182;55.648;13.208;2023-12-22T03:24:42;3.10;1.00
16154;DHT22;8182;55.648;13.208;2023-12-22T03:27:10;3.10;1.00
16154;DHT22;8182;55.648;13.208;2023-12-22T03:29:43;3.30;1.00
16154;DHT22;8182;55.648;13.208;2023-12-22T03:32:10;3.20;1.00
16154;DHT22;8182;55.648;13.208;2023-12-22T03:34:37;3.20;1.00
16154;DHT22;8182;55.648;13.208;2023-12-22T03:37:04;3.20;1.00
16154;DHT22;8182;55.648;13.208;2023-12-22T03:39:31;3.10;1.00
16154;DHT22;8182;55.648;13.208;2023-12-22T03:41:58;3.10;1.00
16154;DHT22;8182;55.648;13.208;2023-12-22T03:44:24;3.20;1.00
16154;DHT22;8182;55.648;13.208;2023-12-22T03:46:53;3.20;1.00
16154;DHT22;8182;55.648;13.208;2023-12-22T03:49:21;3.10;1.00
16154;DHT22;8182;55.648;13.208;2023-12-22T03:51:48;3.10;1.00
16154;DHT22;8182;55.648;13.208;2023-12-22T03:54:15;3.10;1.00
16154;DHT22;8182;55.648;13.208;2023-12-22T03:56:43;3.10;1.00
16154;DHT22;8182;55.648;13.208;2023-12-22T03:59:10;3.10;1.00
16154;DHT22;8182;55.648;13.208;2023-12-22T04:01:38;3.10;1.00
16154;DHT22;8182;55.648;13.208;2023-12-22T04:04:07;3.10;1.00
16154;DHT22;8182;55.648;13.208;2023-12-22T04:06:38;3.00;1.00
16154;DHT22;8182;55.648;13.208;2023-12-22T04:09:05;3.00;1.00
16154;DHT22;8182;55.648;13.208;2023-12-22T04:11:32;3.00;1.00
16154;DHT22;8182;55.648;13.208;2023-12-22T04:14:00;3.10;1.00
16154;DHT22;8182;55.648;13.208;2023-12-22T04:16:27;3.10;1.00
16154;DHT22;8182;55.648;13.208;2023-12-22T04:18:54;3.20;1.00
16154;DHT22;8182;55.648;13.208;2023-12-22T04:21:23;3.20;1.00
16154;DHT22;8182;55.648;13.208;2023-12-22T04:23:50;3.30;1.00
16154;DHT22;8182;55.648;13.208;2023-12-22T04:26:17;3.30;1.00
16154;DHT22;8182;55.648;13.208;2023-12-22T04:28:44;3.40;1.00
16154;DHT22;8182;55.648;13.208;2023-12-22T04:31:11;3.30;1.00
16154;DHT22;8182;55.648;13.208;2023-12-22T04:33:38;3.20;1.00
16154;DHT22;8182;55.648;13.208;2023-12-22T04:36:06;3.40;1.00
16154;DHT22;8182;55.648;13.208;2023-12-22T04:38:35;3.40;1.00
16154;DHT22;8182;55.648;13.208;2023-12-22T04:41:03;3.40;1.00
16154;DHT22;8182;55.648;13.208;2023-12-22T04:43:30;3.30;1.00
16154;DHT22;8182;55.648;13.208;2023-12-22T04:45:57;3.20;1.00
16154;DHT22;8182;55.648;13.208;2023-12-22T04:48:25;3.30;1.00
16154;DHT22;8182;55.648;13.208;2023-12-22T04:50:52;3.20;1.00
16154;DHT22;8182;55.648;13.208;2023-12-22T04:53:19;3.30;1.00
16154;DHT22;8182;55.648;13.208;2023-12-22T04:55:47;3.40;1.00
16154;DHT22;8182;55.648;13.208;2023-12-22T04:58:15;3.30;1.00
16154;DHT22;8182;55.648;13.208;2023-12-22T05:00:43;3.30;1.00
16154;DHT22;8182;55.648;13.208;2023-12-22T05:03:10;3.20;1.00
16154;DHT22;8182;55.648;13.208;2023-12-22T05:05:37;3.20;1.00
16154;DHT22;8182;55.648;13.208;2023-12-22T05:08:05;3.30;1.00
16154;DHT22;8182;55.648;13.208;2023-12-22T05:10:32;3.20;1.00
16154;DHT22;8182;55.648;13.208;2023-12-22T05:13:01;3.10;1.00
16154;DHT22;8182;55.648;13.208;2023-12-22T05:15:28;3.10;1.00
16154;DHT22;8182;55.648;13.208;2023-12-22T05:17:55;3.00;1.00
16154;DHT22;8182;55.648;13.208;2023-12-22T05:20:22;3.00;1.00
16154;DHT22;8182;55.648;13.208;2023-12-22T05:22:50;3.20;1.00
16154;DHT22;8182;55.648;13.208;2023-12-22T05:25:17;3.30;1.00
16154;DHT22;8182;55.648;13.208;2023-12-22T05:27:44;3.20;1.00
16154;DHT22;8182;55.648;13.208;2023-12-22T05:30:14;3.10;1.00
16154;DHT22;8182;55.648;13.208;2023-12-22T05:32:41;3.10;1.00
16154;DHT22;8182;55.648;13.208;2023-12-22T05:35:10;3.20;1.00
16154;DHT22;8182;55.648;13.208;2023-12-22T05:37:37;3.10;99.90
16154;DHT22;8182;55.648;13.208;2023-12-22T05:40:05;2.90;1.00
16154;DHT22;8182;55.648;13.208;2023-12-22T05:42:32;2.80;1.00
16154;DHT22;8182;55.648;13.208;2023-12-22T05:45:00;2.70;1.00
16154;DHT22;8182;55.648;13.208;2023-12-22T05:47:30;2.70;1.00
16154;DHT22;8182;55.648;13.208;2023-12-22T05:49:59;2.80;1.00
16154;DHT22;8182;55.648;13.208;2023-12-22T05:52:28;2.80;1.00
16154;DHT22;8182;55.648;13.208;2023-12-22T05:54:55;2.80;1.00
16154;DHT22;8182;55.648;13.208;2023-12-22T05:57:24;2.80;1.00
16154;DHT22;8182;55.648;13.208;2023-12-22T05:59:52;2.80;1.00
16154;DHT22;8182;55.648;13.208;2023-12-22T06:02:19;2.80;1.00
16154;DHT22;8182;55.648;13.208;2023-12-22T06:04:48;2.90;1.00
16154;DHT22;8182;55.648;13.208;2023-12-22T06:07:15;3.00;1.00
16154;DHT22;8182;55.648;13.208;2023-12-22T06:09:42;3.10;1.00
16154;DHT22;8182;55.648;13.208;2023-12-22T06:12:10;3.10;1.00
16154;DHT22;8182;55.648;13.208;2023-12-22T06:14:37;3.00;1.00
16154;DHT22;8182;55.648;13.208;2023-12-22T06:17:04;3.10;1.00
16154;DHT22;8182;55.648;13.208;2023-12-22T06:19:31;3.00;1.00
16154;DHT22;8182;55.648;13.208;2023-12-22T06:21:59;3.00;1.00
16154;DHT22;8182;55.648;13.208;2023-12-22T06:24:26;3.10;1.00
16154;DHT22;8182;55.648;13.208;2023-12-22T06:26:53;3.00;1.00
16154;DHT22;8182;55.648;13.208;2023-12-22T06:29:21;3.10;1.00
16154;DHT22;8182;55.648;13.208;2023-12-22T06:31:48;3.10;1.00
16154;DHT22;8182;55.648;13.208;2023-12-22T06:34:16;3.10;1.00
16154;DHT22;8182;55.648;13.208;2023-12-22T06:36:43;3.10;1.00
16154;DHT22;8182;55.648;13.208;2023-12-22T06:39:12;3.00;1.00
16154;DHT22;8182;55.648;13.208;2023-12-22T06:41:38;3.00;1.00
16154;DHT22;8182;55.648;13.208;2023-12-22T06:44:06;3.00;1.00
16154;DHT22;8182;55.648;13.208;2023-12-22T06:46:36;3.00;1.00
16154;DHT22;8182;55.648;13.208;2023-12-22T06:49:03;3.00;1.00
16154;DHT22;8182;55.648;13.208;2023-12-22T06:51:31;2.90;1.00
16154;DHT22;8182;55.648;13.208;2023-12-22T06:54:01;2.70;1.00
16154;DHT22;8182;55.648;13.208;2023-12-22T06:56:34;2.70;1.00
16154;DHT22;8182;55.648;13.208;2023-12-22T06:59:02;2.60;1.00
16154;DHT22;8182;55.648;13.208;2023-12-22T07:01:30;2.70;1.00
16154;DHT22;8182;55.648;13.208;2023-12-22T07:03:58;2.70;1.00
16154;DHT22;8182;55.648;13.208;2023-12-22T07:06:28;2.70;1.00
16154;DHT22;8182;55.648;13.208;2023-12-22T07:09:34;2.70;1.00
16154;DHT22;8182;55.648;13.208;2023-12-22T07:12:03;2.60;1.00
16154;DHT22;8182;55.648;13.208;2023-12-22T07:14:31;2.60;1.00
16154;DHT22;8182;55.648;13.208;2023-12-22T07:16:58;2.60;1.00
16154;DHT22;8182;55.648;13.208;2023-12-22T07:19:26;2.60;1.00
16154;DHT22;8182;55.648;13.208;2023-12-22T07:21:53;2.60;1.00
16154;DHT22;8182;55.648;13.208;2023-12-22T07:24:20;2.70;1.00
16154;DHT22;8182;55.648;13.208;2023-12-22T07:26:47;2.60;1.00
16154;DHT22;8182;55.648;13.208;2023-12-22T07:29:15;2.40;1.00
16154;DHT22;8182;55.648;13.208;2023-12-22T07:31:42;2.50;1.00
16154;DHT22;8182;55.648;13.208;2023-12-22T07:34:10;2.50;1.00
16154;DHT22;8182;55.648;13.208;2023-12-22T07:36:37;2.50;1.00
16154;DHT22;8182;55.648;13.208;2023-12-22T07:39:04;2.50;99.90
16154;DHT22;8182;55.648;13.208;2023-12-22T07:41:32;2.40;99.90
16154;DHT22;8182;55.648;13.208;2023-12-22T07:43:59;2.50;1.00
16154;DHT22;8182;55.648;13.208;2023-12-22T07:46:28;2.50;1.00
16154;DHT22;8182;55.648;13.208;2023-12-22T07:48:56;2.50;1.00
16154;DHT22;8182;55.648;13.208;2023-12-22T07:51:23;2.50;1.00
16154;DHT22;8182;55.648;13.208;2023-12-22T07:53:50;2.50;1.00
16154;DHT22;8182;55.648;13.208;2023-12-22T07:56:17;2.40;99.90
16154;DHT22;8182;55.648;13.208;2023-12-22T07:58:46;2.50;1.00
16154;DHT22;8182;55.648;13.208;2023-12-22T08:01:13;2.60;1.00
16154;DHT22;8182;55.648;13.208;2023-12-22T08:03:42;2.60;23.40
16154;DHT22;8182;55.648;13.208;2023-12-22T08:06:09;2.60;99.90
16154;DHT22;8182;55.648;13.208;2023-12-22T08:08:36;2.60;99.90
16154;DHT22;8182;55.648;13.208;2023-12-22T08:11:03;2.50;1.00
16154;DHT22;8182;55.648;13.208;2023-12-22T08:13:30;2.50;99.90
16154;DHT22;8182;55.648;13.208;2023-12-22T08:15:57;2.50;1.00
16154;DHT22;8182;55.648;13.208;2023-12-22T08:18:23;2.60;1.00
16154;DHT22;8182;55.648;13.208;2023-12-22T08:20:52;2.60;1.00
16154;DHT22;8182;55.648;13.208;2023-12-22T08:23:24;2.70;1.00
16154;DHT22;8182;55.648;13.208;2023-12-22T08:25:51;2.70;1.00
16154;DHT22;8182;55.648;13.208;2023-12-22T08:28:18;2.80;1.00
16154;DHT22;8182;55.648;13.208;2023-12-22T08:30:46;2.90;1.00
16154;DHT22;8182;55.648;13.208;2023-12-22T08:33:13;2.80;1.00
16154;DHT22;8182;55.648;13.208;2023-12-22T08:35:40;2.80;1.00
16154;DHT22;8182;55.648;13.208;2023-12-22T08:38:09;2.80;1.00
16154;DHT22;8182;55.648;13.208;2023-12-22T08:40:38;2.70;1.00
16154;DHT22;8182;55.648;13.208;2023-12-22T08:43:05;2.80;1.00
16154;DHT22;8182;55.648;13.208;2023-12-22T08:45:33;2.80;1.00
16154;DHT22;8182;55.648;13.208;2023-12-22T08:48:01;2.80;1.00
16154;DHT22;8182;55.648;13.208;2023-12-22T08:50:29;2.80;1.00
16154;DHT22;8182;55.648;13.208;2023-12-22T08:52:56;2.90;1.00
16154;DHT22;8182;55.648;13.208;2023-12-22T08:55:25;2.90;1.00
16154;DHT22;8182;55.648;13.208;2023-12-22T08:57:51;3.00;1.00
16154;DHT22;8182;55.648;13.208;2023-12-22T09:00:19;3.00;1.00
16154;DHT22;8182;55.648;13.208;2023-12-22T09:02:46;3.00;1.00
16154;DHT22;8182;55.648;13.208;2023-12-22T09:05:13;3.00;1.00
16154;DHT22;8182;55.648;13.208;2023-12-22T09:07:40;3.10;1.00
16154;DHT22;8182;55.648;13.208;2023-12-22T09:10:07;3.10;1.00
16154;DHT22;8182;55.648;13.208;2023-12-22T09:12:36;3.20;1.00
16154;DHT22;8182;55.648;13.208;2023-12-22T09:15:03;3.20;1.00
16154;DHT22;8182;55.648;13.208;2023-12-22T09:17:31;3.20;1.00
16154;DHT22;8182;55.648;13.208;2023-12-22T09:19:59;3.20;1.00
16154;DHT22;8182;55.648;13.208;2023-12-22T09:22:26;3.20;99.90
16154;DHT22;8182;55.648;13.208;2023-12-22T09:24:53;3.20;50.60
16154;DHT22;8182;55.648;13.208;2023-12-22T09:27:20;3.20;16.90
16154;DHT22;8182;55.648;13.208;2023-12-22T09:29:49;3.20;1.00
16154;DHT22;8182;55.648;13.208;2023-12-22T09:32:16;3.20;1.00
16154;DHT22;8182;55.648;13.208;2023-12-22T09:34:43;3.10;1.00
16154;DHT22;8182;55.648;13.208;2023-12-22T09:37:10;3.20;1.00
16154;DHT22;8182;55.648;13.208;2023-12-22T09:39:37;3.30;1.00
16154;DHT22;8182;55.648;13.208;2023-12-22T09:42:05;3.20;1.00
16154;DHT22;8182;55.648;13.208;2023-12-22T09:44:32;3.20;1.00
16154;DHT22;8182;55.648;13.208;2023-12-22T09:47:04;3.20;1.00
16154;DHT22;8182;55.648;13.208;2023-12-22T09:49:32;3.30;1.00
16154;DHT22;8182;55.648;13.208;2023-12-22T09:52:01;3.30;99.90
16154;DHT22;8182;55.648;13.208;2023-12-22T09:54:30;3.50;1.00
16154;DHT22;8182;55.648;13.208;2023-12-22T09:56:57;3.50;1.00
16154;DHT22;8182;55.648;13.208;2023-12-22T09:59:25;3.50;1.00
16154;DHT22;8182;55.648;13.208;2023-12-22T10:01:55;3.60;1.00
16154;DHT22;8182;55.648;13.208;2023-12-22T10:04:24;3.50;1.00
16154;DHT22;8182;55.648;13.208;2023-12-22T10:06:51;3.60;1.00
16154;DHT22;8182;55.648;13.208;2023-12-22T10:09:20;3.60;1.00
16154;DHT22;8182;55.648;13.208;2023-12-22T10:11:50;3.70;1.00
16154;DHT22;8182;55.648;13.208;2023-12-22T10:14:19;3.70;1.00
16154;DHT22;8182;55.648;13.208;2023-12-22T10:16:48;3.70;1.00
16154;DHT22;8182;55.648;13.208;2023-12-22T10:19:15;3.80;1.00
16154;DHT22;8182;55.648;13.208;2023-12-22T10:21:44;4.10;1.00
16154;DHT22;8182;55.648;13.208;2023-12-22T10:24:38;4.10;1.00
16154;DHT22;8182;55.648;13.208;2023-12-22T10:27:05;4.20;1.00
16154;DHT22;8182;55.648;13.208;2023-12-22T10:29:32;4.00;1.00
16154;DHT22;8182;55.648;13.208;2023-12-22T10:32:00;3.90;1.00
16154;DHT22;8182;55.648;13.208;2023-12-22T10:34:28;4.20;1.00
16154;DHT22;8182;55.648;13.208;2023-12-22T10:36:56;4.20;1.00
16154;DHT22;8182;55.648;13.208;2023-12-22T10:39:27;4.40;1.00
16154;DHT22;8182;55.648;13.208;2023-12-22T10:41:54;4.30;1.00
16154;DHT22;8182;55.648;13.208;2023-12-22T10:44:24;4.20;1.00
16154;DHT22;8182;55.648;13.208;2023-12-22T10:46:51;3.90;1.00
16154;DHT22;8182;55.648;13.208;2023-12-22T10:49:18;3.80;1.00
16154;DHT22;8182;55.648;13.208;2023-12-22T10:51:45;3.90;1.00
16154;DHT22;8182;55.648;13.208;2023-12-22T10:54:13;3.80;1.00
16154;DHT22;8182;55.648;13.208;2023-12-22T10:56:40;3.80;1.00
16154;DHT22;8182;55.648;13.208;2023-12-22T10:59:09;3.80;1.00
16154;DHT22;8182;55.648;13.208;2023-12-22T11:01:37;3.70;1.00
16154;DHT22;8182;55.648;13.208;2023-12-22T11:04:06;3.90;1.00
16154;DHT22;8182;55.648;13.208;2023-12-22T11:06:35;3.70;1.00
16154;DHT22;8182;55.648;13.208;2023-12-22T11:09:06;3.80;1.00
16154;DHT22;8182;55.648;13.208;2023-12-22T11:11:36;3.90;1.00
16154;DHT22;8182;55.648;13.208;2023-12-22T11:14:04;3.80;1.00
16154;DHT22;8182;55.648;13.208;2023-12-22T11:16:32;3.90;1.00
16154;DHT22;8182;55.648;13.208;2023-12-22T11:19:00;3.90;1.00
16154;DHT22;8182;55.648;13.208;2023-12-22T11:21:29;3.90;1.00
16154;DHT22;8182;55.648;13.208;2023-12-22T11:23:56;3.90;1.00
16154;DHT22;8182;55.648;13.208;2023-12-22T11:26:24;3.90;1.00
16154;DHT22;8182;55.648;13.208;2023-12-22T11:28:53;4.00;1.00
16154;DHT22;8182;55.648;13.208;2023-12-22T11:31:20;4.00;1.00
16154;DHT22;8182;55.648;13.208;2023-12-22T11:33:48;4.30;1.00
16154;DHT22;8182;55.648;13.208;2023-12-22T11:36:16;4.10;1.00
16154;DHT22;8182;55.648;13.208;2023-12-22T11:38:45;4.10;1.00
16154;DHT22;8182;55.648;13.208;2023-12-22T11:41:15;4.10;1.00
16154;DHT22;8182;55.648;13.208;2023-12-22T11:43:44;4.10;1.00
16154;DHT22;8182;55.648;13.208;2023-12-22T11:46:16;4.20;1.00
16154;DHT22;8182;55.648;13.208;2023-12-22T11:48:47;4.40;1.00
16154;DHT22;8182;55.648;13.208;2023-12-22T11:51:14;4.30;1.00
16154;DHT22;8182;55.648;13.208;2023-12-22T11:53:42;3.90;1.00
16154;DHT22;8182;55.648;13.208;2023-12-22T11:56:09;3.20;1.00
16154;DHT22;8182;55.648;13.208;2023-12-22T11:58:38;3.10;1.00
16154;DHT22;8182;55.648;13.208;2023-12-22T12:01:07;3.20;1.00
16154;DHT22;8182;55.648;13.208;2023-12-22T12:03:40;3.20;1.00
16154;DHT22;8182;55.648;13.208;2023-12-22T12:06:11;3.20;1.00
16154;DHT22;8182;55.648;13.208;2023-12-22T12:08:40;3.20;1.00
16154;DHT22;8182;55.648;13.208;2023-12-22T12:11:08;3.20;1.00
16154;DHT22;8182;55.648;13.208;2023-12-22T12:13:41;3.30;1.00
16154;DHT22;8182;55.648;13.208;2023-12-22T12:16:08;3.40;1.00
16154;DHT22;8182;55.648;13.208;2023-12-22T12:18:37;3.40;1.00
16154;DHT22;8182;55.648;13.208;2023-12-22T12:21:06;3.40;1.00
16154;DHT22;8182;55.648;13.208;2023-12-22T12:23:34;3.30;1.00
16154;DHT22;8182;55.648;13.208;2023-12-22T12:26:00;3.10;1.00
16154;DHT22;8182;55.648;13.208;2023-12-22T12:28:29;3.10;1.00
16154;DHT22;8182;55.648;13.208;2023-12-22T12:30:57;3.10;1.00
16154;DHT22;8182;55.648;13.208;2023-12-22T12:33:30;3.20;1.00
16154;DHT22;8182;55.648;13.208;2023-12-22T12:36:00;3.20;1.00
16154;DHT22;8182;55.648;13.208;2023-12-22T12:38:37;2.80;1.00
16154;DHT22;8182;55.648;13.208;2023-12-22T12:41:09;2.60;1.00
16154;DHT22;8182;55.648;13.208;2023-12-22T12:43:41;2.40;1.00
16154;DHT22;8182;55.648;13.208;2023-12-22T12:46:14;2.40;1.00
16154;DHT22;8182;55.648;13.208;2023-12-22T12:48:41;2.30;1.00
16154;DHT22;8182;55.648;13.208;2023-12-22T12:51:10;2.50;1.00
16154;DHT22;8182;55.648;13.208;2023-12-22T12:53:37;2.60;1.00
16154;DHT22;8182;55.648;13.208;2023-12-22T12:56:05;2.60;1.00
16154;DHT22;8182;55.648;13.208;2023-12-22T12:58:33;2.70;1.00
16154;DHT22;8182;55.648;13.208;2023-12-22T13:01:10;2.80;1.00
16154;DHT22;8182;55.648;13.208;2023-12-22T13:03:53;2.70;1.00
16154;DHT22;8182;55.648;13.208;2023-12-22T13:06:23;2.70;1.00
16154;DHT22;8182;55.648;13.208;2023-12-22T13:08:52;2.80;1.00
16154;DHT22;8182;55.648;13.208;2023-12-22T13:11:20;2.70;1.00
16154;DHT22;8182;55.648;13.208;2023-12-22T13:13:49;2.80;1.00
16154;DHT22;8182;55.648;13.208;2023-12-22T13:16:18;2.80;1.00
16154;DHT22;8182;55.648;13.208;2023-12-22T13:18:45;2.80;1.00
16154;DHT22;8182;55.648;13.208;2023-12-22T13:21:12;3.00;1.00
16154;DHT22;8182;55.648;13.208;2023-12-22T13:23:41;3.00;1.00
16154;DHT22;8182;55.648;13.208;2023-12-22T13:26:18;3.10;1.00
16154;DHT22;8182;55.648;13.208;2023-12-22T13:28:45;3.10;1.00
16154;DHT22;8182;55.648;13.208;2023-12-22T13:31:13;3.30;1.00
16154;DHT22;8182;55.648;13.208;2023-12-22T13:33:43;3.30;1.00
16154;DHT22;8182;55.648;13.208;2023-12-22T13:36:11;3.20;1.00
16154;DHT22;8182;55.648;13.208;2023-12-22T13:38:38;3.20;1.00
16154;DHT22;8182;55.648;13.208;2023-12-22T13:41:08;3.20;1.00
16154;DHT22;8182;55.648;13.208;2023-12-22T13:43:35;3.10;1.00
16154;DHT22;8182;55.648;13.208;2023-12-22T13:46:02;3.10;1.00
16154;DHT22;8182;55.648;13.208;2023-12-22T13:48:30;3.20;1.00
16154;DHT22;8182;55.648;13.208;2023-12-22T13:50:57;3.30;1.00
16154;DHT22;8182;55.648;13.208;2023-12-22T13:53:24;3.10;1.00
16154;DHT22;8182;55.648;13.208;2023-12-22T13:55:55;3.10;1.00
16154;DHT22;8182;55.648;13.208;2023-12-22T13:58:24;3.00;1.00
16154;DHT22;8182;55.648;13.208;2023-12-22T14:00:51;3.00;1.00
16154;DHT22;8182;55.648;13.208;2023-12-22T14:03:19;2.90;1.00
16154;DHT22;8182;55.648;13.208;2023-12-22T14:05:47;3.00;1.00
16154;DHT22;8182;55.648;13.208;2023-12-22T14:08:15;2.90;1.00
16154;DHT22;8182;55.648;13.208;2023-12-22T14:10:46;3.00;1.00
16154;DHT22;8182;55.648;13.208;2023-12-22T14:13:14;3.00;1.00
16154;DHT22;8182;55.648;13.208;2023-12-22T14:15:43;2.90;1.00
16154;DHT22;8182;55.648;13.208;2023-12-22T14:18:09;2.60;1.00
16154;DHT22;8182;55.648;13.208;2023-12-22T14:20:36;2.40;1.00
16154;DHT22;8182;55.648;13.208;2023-12-22T14:23:03;2.50;1.00
16154;DHT22;8182;55.648;13.208;2023-12-22T14:25:30;2.70;1.00
16154;DHT22;8182;55.648;13.208;2023-12-22T14:27:58;2.70;1.00
16154;DHT22;8182;55.648;13.208;2023-12-22T14:30:25;2.70;1.00
16154;DHT22;8182;55.648;13.208;2023-12-22T14:32:54;2.60;1.00
16154;DHT22;8182;55.648;13.208;2023-12-22T14:35:21;2.20;1.00
16154;DHT22;8182;55.648;13.208;2023-12-22T14:37:48;2.10;1.00
16154;DHT22;8182;55.648;13.208;2023-12-22T14:40:15;2.00;1.00
16154;DHT22;8182;55.648;13.208;2023-12-22T14:42:42;1.90;1.00
16154;DHT22;8182;55.648;13.208;2023-12-22T14:45:09;1.90;1.00
16154;DHT22;8182;55.648;13.208;2023-12-22T14:47:36;2.00;1.00
16154;DHT22;8182;55.648;13.208;2023-12-22T14:50:05;2.00;1.00
16154;DHT22;8182;55.648;13.208;2023-12-22T14:52:32;2.00;1.00
16154;DHT22;8182;55.648;13.208;2023-12-22T14:55:00;2.10;1.00
16154;DHT22;8182;55.648;13.208;2023-12-22T14:57:28;2.20;1.00
16154;DHT22;8182;55.648;13.208;2023-12-22T14:59:55;2.30;1.00
16154;DHT22;8182;55.648;13.208;2023-12-22T15:02:22;2.40;1.00
16154;DHT22;8182;55.648;13.208;2023-12-22T15:04:49;2.40;1.00
16154;DHT22;8182;55.648;13.208;2023-12-22T15:07:18;2.50;1.00
16154;DHT22;8182;55.648;13.208;2023-12-22T15:09:45;2.60;1.00
16154;DHT22;8182;55.648;13.208;2023-12-22T15:12:14;2.60;1.00
16154;DHT22;8182;55.648;13.208;2023-12-22T15:14:43;2.60;1.00
16154;DHT22;8182;55.648;13.208;2023-12-22T15:17:11;2.60;1.00
16154;DHT22;8182;55.648;13.208;2023-12-22T15:19:40;2.40;1.00
16154;DHT22;8182;55.648;13.208;2023-12-22T15:22:08;2.30;1.00
16154;DHT22;8182;55.648;13.208;2023-12-22T15:24:37;2.30;1.00
16154;DHT22;8182;55.648;13.208;2023-12-22T15:27:06;2.30;1.00
16154;DHT22;8182;55.648;13.208;2023-12-22T15:29:33;2.30;1.00
16154;DHT22;8182;55.648;13.208;2023-12-22T15:32:00;2.30;1.00
16154;DHT22;8182;55.648;13.208;2023-12-22T15:34:27;2.30;1.00
16154;DHT22;8182;55.648;13.208;2023-12-22T15:36:54;2.40;1.00
16154;DHT22;8182;55.648;13.208;2023-12-22T15:39:21;2.40;1.00
16154;DHT22;8182;55.648;13.208;2023-12-22T15:41:49;2.40;1.00
16154;DHT22;8182;55.648;13.208;2023-12-22T15:44:19;2.30;1.00
16154;DHT22;8182;55.648;13.208;2023-12-22T15:46:46;2.20;1.00
16154;DHT22;8182;55.648;13.208;2023-12-22T15:49:13;2.30;1.00
16154;DHT22;8182;55.648;13.208;2023-12-22T15:51:41;1.20;99.90
16154;DHT22;8182;55.648;13.208;2023-12-22T15:54:08;1.10;99.90
16154;DHT22;8182;55.648;13.208;2023-12-22T15:56:35;1.10;1.00
16154;DHT22;8182;55.648;13.208;2023-12-22T15:59:03;1.10;1.00
16154;DHT22;8182;55.648;13.208;2023-12-22T16:01:33;1.30;1.00
16154;DHT22;8182;55.648;13.208;2023-12-22T16:04:00;1.30;1.00
16154;DHT22;8182;55.648;13.208;2023-12-22T16:06:27;1.40;1.00